Terminal Aerodrome Forecast
Issued by NWS Greer, SC

Home | Current Version | Previous Version | Text Only | Print | Product List | Glossary On
Versions: 1 2 3 4 5 6 7 8 9 10 11 12 13 14 15 16 17 18 19 20 21 22 23
162
FTUS42 KGSP 171741
TAFGSP
TAF
KGSP 171741Z 1718/1818 23010KT P6SM OVC010
     FM171900 23010KT P6SM BKN015
     FM172000 22009KT P6SM OVC050
     FM180300 22009KT P6SM BKN010
     FM180700 23010KT 4SM BR BKN008
     FM181500 27007KT P6SM BKN100=

USA.gov is the U.S. government's official web portal to all federal, state and local government web resources and services.